createdAt,value
2022-08-22T00:00:55.468Z,47.8570
2022-08-22T00:01:59.750Z,48.0430
2022-08-22T00:02:53.247Z,45.6910
2022-08-22T00:02:55.977Z,46.7020
2022-08-22T00:02:59.905Z,47.4520
2022-08-22T00:03:02.741Z,46.2860
2022-08-22T00:03:04.340Z,45.7140
2022-08-22T00:03:25.182Z,47.9840
2022-08-22T00:04:01.928Z,48.0470
2022-08-22T00:05:04.143Z,48.1250
2022-08-22T00:06:08.356Z,48.1570
2022-08-22T00:07:10.464Z,48.1650
2022-08-22T00:08:12.580Z,48.1230
2022-08-22T00:09:14.700Z,48.0880
2022-08-22T00:10:25.265Z,48.1810
2022-08-22T00:11:16.776Z,48.2720
2022-08-22T00:12:18.915Z,48.4130
2022-08-22T00:13:18.960Z,48.4520
2022-08-22T00:14:21.147Z,48.2910
2022-08-22T00:15:42.108Z,48.1470
2022-08-22T00:16:25.591Z,48.1750
2022-08-22T00:17:27.801Z,48.2210
2022-08-22T00:18:29.991Z,48.2680
2022-08-22T00:19:32.189Z,48.2680
2022-08-22T00:20:34.385Z,48.2720
2022-08-22T00:21:36.554Z,48.1910
2022-08-22T00:22:38.769Z,48.1520
2022-08-22T00:23:40.954Z,48.2260
2022-08-22T00:24:43.149Z,48.1420
2022-08-22T00:25:45.392Z,48.3120
2022-08-22T00:26:47.598Z,48.2980
2022-08-22T00:27:47.699Z,48.2980
2022-08-22T00:28:49.941Z,48.2780
2022-08-22T00:29:52.411Z,48.2280
2022-08-22T00:30:54.413Z,48.1480
2022-08-22T00:31:56.558Z,48.0380
2022-08-22T00:32:58.736Z,48.0440
2022-08-22T00:34:00.894Z,48.0790
2022-08-22T00:35:03.079Z,48.1580
2022-08-22T00:36:05.294Z,48.0080
2022-08-22T00:37:07.469Z,47.9040
2022-08-22T00:38:09.671Z,47.9040
2022-08-22T00:39:11.884Z,47.8820
2022-08-22T00:40:14.130Z,47.8510
2022-08-22T00:41:16.291Z,47.8570
2022-08-22T00:42:31.927Z,47.7740
2022-08-22T00:43:20.652Z,47.9400
2022-08-22T00:44:20.731Z,47.9090
2022-08-22T00:45:22.939Z,47.9270
2022-08-22T00:46:25.175Z,47.9230
2022-08-22T00:47:27.359Z,48.0150
2022-08-22T00:48:29.535Z,48.0880
2022-08-22T00:49:31.746Z,48.1730
2022-08-22T00:50:33.943Z,48.1100
2022-08-22T00:51:36.175Z,48.1410
2022-08-22T00:52:38.368Z,48.1920
2022-08-22T00:53:40.583Z,48.2000
2022-08-22T00:54:42.717Z,48.1940
2022-08-22T00:55:44.921Z,48.2280
2022-08-22T00:56:47.165Z,48.2830
2022-08-22T00:57:49.362Z,48.2550
2022-08-22T00:58:51.567Z,48.2670
2022-08-22T00:59:53.777Z,48.1880
2022-08-22T01:00:56.007Z,48.2140
2022-08-22T01:01:56.006Z,48.1130
2022-08-22T01:02:58.193Z,48.0900
2022-08-22T01:04:00.396Z,48.0430
2022-08-22T01:05:02.617Z,48.0310
2022-08-22T01:06:04.838Z,48.0840
2022-08-22T01:07:07.124Z,48.0760
2022-08-22T01:08:09.328Z,48.0070
2022-08-22T01:09:11.596Z,48.0370
2022-08-22T01:10:11.755Z,47.9800
2022-08-22T01:11:14.064Z,47.9740
2022-08-22T01:12:16.521Z,48.0470
2022-08-22T01:13:16.505Z,47.9920
2022-08-22T01:14:18.791Z,48.0760
2022-08-22T01:15:21.062Z,48.0070
2022-08-22T01:16:23.336Z,48.0310
2022-08-22T01:17:25.650Z,48.2140
2022-08-22T01:18:27.843Z,48.1560
2022-08-22T01:19:27.959Z,48.3370
2022-08-22T01:20:30.236Z,48.3560
2022-08-22T01:21:32.505Z,48.2050
2022-08-22T01:22:34.788Z,48.1530
2022-08-22T01:23:37.031Z,48.1000
2022-08-22T01:24:39.283Z,47.9960
2022-08-22T01:25:41.494Z,47.9800
2022-08-22T01:26:44.786Z,47.9110
2022-08-22T01:27:45.935Z,48.0080
2022-08-22T01:28:48.109Z,47.9750
2022-08-22T01:29:50.371Z,48.0080
2022-08-22T01:30:52.638Z,48.0480
2022-08-22T01:31:52.737Z,48.1010
2022-08-22T01:32:57.047Z,48.1740
2022-08-22T01:33:57.191Z,48.2780
2022-08-22T01:34:59.445Z,48.3730
2022-08-22T01:36:01.669Z,48.4240
2022-08-22T01:37:03.928Z,48.4180
2022-08-22T01:38:06.243Z,48.3940
2022-08-22T01:39:08.457Z,48.3250
2022-08-22T01:40:10.776Z,48.2560
2022-08-22T01:41:12.949Z,48.2980
2022-08-22T01:42:13.011Z,48.3710
2022-08-22T01:44:09.006Z,48.6440
2022-08-22T01:45:11.144Z,48.6010
2022-08-22T01:46:11.229Z,48.5260
2022-08-22T01:47:13.463Z,48.4590
2022-08-22T01:48:15.655Z,48.3930
2022-08-22T01:49:17.885Z,48.3990
2022-08-22T01:50:20.103Z,48.4280
2022-08-22T01:51:22.344Z,48.3950
2022-08-22T01:52:24.566Z,48.4520
2022-08-22T01:53:28.170Z,48.4750
2022-08-22T01:54:29.076Z,48.5520
2022-08-22T01:55:31.280Z,48.5810
2022-08-22T01:56:41.657Z,48.7510
2022-08-22T01:57:42.256Z,48.6480
2022-08-22T01:58:44.402Z,48.6360
2022-08-22T01:59:46.561Z,48.5400
2022-08-22T02:00:48.778Z,48.5180
2022-08-22T02:01:50.856Z,48.5720
2022-08-22T02:02:53.026Z,48.5660
2022-08-22T02:03:55.149Z,48.5910
2022-08-22T02:04:57.294Z,48.6190
2022-08-22T02:05:59.420Z,48.5970
2022-08-22T02:07:01.535Z,48.6280
2022-08-22T02:08:03.719Z,48.6280
2022-08-22T02:09:05.902Z,48.6370
2022-08-22T02:10:08.110Z,48.7350
2022-08-22T02:11:10.279Z,48.8470
2022-08-22T02:12:13.929Z,48.8800
2022-08-22T02:13:14.741Z,48.9210
2022-08-22T02:14:16.983Z,48.9050
2022-08-22T02:15:19.256Z,48.8680
2022-08-22T02:16:19.281Z,48.8350
2022-08-22T02:17:21.464Z,48.8540
2022-08-22T02:18:23.699Z,48.8350
2022-08-22T02:19:25.927Z,48.8860
2022-08-22T02:20:28.126Z,48.9980
2022-08-22T02:21:30.259Z,49.0570
2022-08-22T02:22:32.474Z,49.0610
2022-08-22T02:23:34.704Z,49.1120
2022-08-22T02:24:36.942Z,49.2140
2022-08-22T02:25:39.193Z,49.1840
2022-08-22T02:26:41.396Z,49.2020
2022-08-22T02:27:43.636Z,49.0860
2022-08-22T02:28:57.031Z,48.9290
2022-08-22T02:29:45.975Z,48.9510
2022-08-22T02:30:48.226Z,48.9330
2022-08-22T02:31:50.406Z,48.8600
2022-08-22T02:32:52.616Z,48.8470
2022-08-22T02:33:54.851Z,48.7660
2022-08-22T02:34:57.044Z,48.7080
2022-08-22T02:35:59.541Z,48.7980
2022-08-22T02:36:59.377Z,48.7570
2022-08-22T02:38:01.657Z,48.8040
2022-08-22T02:39:03.943Z,48.7780
2022-08-22T02:40:06.341Z,48.8510
2022-08-22T02:41:08.567Z,48.8910
2022-08-22T02:42:10.845Z,48.8450
2022-08-22T02:43:13.149Z,48.8570
2022-08-22T02:44:13.261Z,48.9260
2022-08-22T02:45:15.477Z,48.9960
2022-08-22T02:46:17.660Z,48.9120
2022-08-22T02:47:19.801Z,48.8630
2022-08-22T02:48:21.936Z,48.8570
2022-08-22T02:49:24.089Z,48.8180
2022-08-22T02:50:26.235Z,48.7810
2022-08-22T02:51:28.489Z,48.8340
2022-08-22T02:52:30.736Z,48.7870
2022-08-22T02:53:33.019Z,48.8560
2022-08-22T02:54:35.317Z,48.8280
2022-08-22T02:55:37.602Z,48.9280
2022-08-22T02:56:39.947Z,48.8910
2022-08-22T02:57:40.045Z,48.9600
2022-08-22T02:58:42.332Z,49.0620
2022-08-22T02:59:44.616Z,48.9520
2022-08-22T03:00:46.944Z,48.9790
2022-08-22T03:01:49.223Z,49.1950
2022-08-22T03:02:51.485Z,49.0030
2022-08-22T03:03:53.791Z,48.9160
2022-08-22T03:04:53.942Z,48.9090
2022-08-22T03:06:00.855Z,48.8580
2022-08-22T03:06:58.558Z,48.7830
2022-08-22T03:08:00.855Z,48.7830
2022-08-22T03:09:00.926Z,48.8230
2022-08-22T03:10:03.220Z,48.7640
2022-08-22T03:11:05.531Z,48.7700
2022-08-22T03:12:07.844Z,48.7130
2022-08-22T03:13:10.122Z,48.6890
2022-08-22T03:14:12.412Z,48.7470
2022-08-22T03:15:12.552Z,48.7880
2022-08-22T03:16:14.850Z,48.9740
2022-08-22T03:17:17.162Z,48.8450
2022-08-22T03:18:19.414Z,48.7660
2022-08-22T03:19:21.667Z,48.7820
2022-08-22T03:20:23.930Z,48.7550
2022-08-22T03:21:26.215Z,48.7370
2022-08-22T03:22:28.511Z,48.8040
2022-08-22T03:23:28.613Z,48.7900
2022-08-22T03:24:30.899Z,48.8690
2022-08-22T03:25:33.197Z,48.8850
2022-08-22T03:26:35.506Z,48.8510
2022-08-22T03:27:37.799Z,48.8750
2022-08-22T03:28:39.998Z,48.9030
2022-08-22T03:29:42.266Z,49.0080
2022-08-22T03:30:44.557Z,49.0340
2022-08-22T03:31:44.705Z,49.1100
2022-08-22T03:32:47.015Z,49.0910
2022-08-22T03:33:49.280Z,49.1040
2022-08-22T03:34:51.570Z,49.0630
2022-08-22T03:35:53.859Z,49.0380
2022-08-22T03:36:56.162Z,49.1260
2022-08-22T03:37:56.330Z,49.2000
2022-08-22T03:38:58.599Z,49.3060
2022-08-22T03:40:00.975Z,49.3120
2022-08-22T03:41:03.190Z,49.3450
2022-08-22T03:42:05.473Z,49.4270
2022-08-22T03:43:07.769Z,49.3290
2022-08-22T03:44:10.061Z,49.3230
2022-08-22T03:45:10.162Z,49.2420
2022-08-22T03:46:12.374Z,49.2660
2022-08-22T03:47:14.606Z,49.2600
2022-08-22T03:48:16.867Z,49.2170
2022-08-22T03:49:19.061Z,49.2640
2022-08-22T03:50:21.220Z,49.2480
2022-08-22T03:51:23.421Z,49.1950
2022-08-22T03:52:25.627Z,49.1830
2022-08-22T03:53:27.865Z,49.1700
2022-08-22T03:54:30.485Z,49.1150
2022-08-22T03:55:32.321Z,49.1830
2022-08-22T03:56:34.568Z,49.1370
2022-08-22T03:57:34.670Z,49.1660
2022-08-22T03:58:36.956Z,49.3010
2022-08-22T03:59:42.731Z,49.2480
2022-08-22T04:00:41.499Z,49.2230
2022-08-22T04:01:43.705Z,49.3050
2022-08-22T04:02:45.943Z,49.1700
2022-08-22T04:03:48.224Z,49.2360
2022-08-22T04:04:50.443Z,49.2420
2022-08-22T04:05:52.835Z,49.4210
2022-08-22T04:06:56.562Z,49.4870
2022-08-22T04:07:54.990Z,49.3400
2022-08-22T04:08:57.293Z,49.2890
2022-08-22T04:09:59.538Z,49.3860
2022-08-22T04:11:02.575Z,49.3440
2022-08-22T04:12:04.113Z,49.3640
2022-08-22T04:13:06.404Z,49.3640
2022-08-22T04:14:08.688Z,49.3700
2022-08-22T04:15:10.925Z,49.2930
2022-08-22T04:16:11.011Z,49.2600
2022-08-22T04:17:13.236Z,49.2400
2022-08-22T04:18:15.465Z,49.1770
2022-08-22T04:19:17.749Z,49.2010
2022-08-22T04:20:19.970Z,49.2260
2022-08-22T04:21:22.236Z,49.1600
2022-08-22T04:22:24.503Z,49.0800
2022-08-22T04:23:26.766Z,49.1150
2022-08-22T04:24:29.079Z,49.0390
2022-08-22T04:25:29.162Z,49.0380
2022-08-22T04:26:31.432Z,49.2770
2022-08-22T04:27:33.725Z,49.5040
2022-08-22T04:28:35.991Z,49.6370
2022-08-22T04:29:38.280Z,49.4760
2022-08-22T04:30:40.526Z,48.8010
2022-08-22T04:31:42.784Z,49.0740
2022-08-22T04:32:45.030Z,49.4590
2022-08-22T04:33:45.184Z,49.9150
2022-08-22T04:34:47.473Z,50.3410
2022-08-22T04:35:49.781Z,50.9190
2022-08-22T04:36:52.133Z,51.1400
2022-08-22T04:37:54.415Z,51.6350
2022-08-22T04:38:56.760Z,52.2730
2022-08-22T04:39:57.046Z,52.7730
2022-08-22T04:41:02.615Z,52.9440
2022-08-22T04:42:16.027Z,53.1150
2022-08-22T04:43:01.798Z,53.4130
2022-08-22T04:44:04.111Z,53.6330
2022-08-22T04:45:06.540Z,54.0660
2022-08-22T04:46:06.688Z,54.1660
2022-08-22T04:47:09.072Z,54.4490
2022-08-22T04:48:11.412Z,54.6480
2022-08-22T04:49:13.763Z,54.9100
2022-08-22T04:50:14.034Z,54.8920
2022-08-22T04:51:16.342Z,54.7710
2022-08-22T04:52:18.750Z,54.8650
2022-08-22T04:53:21.386Z,55.0800
2022-08-22T04:54:22.316Z,55.4010
2022-08-22T04:55:24.727Z,55.7670
2022-08-22T04:56:27.022Z,55.7320
2022-08-22T04:57:29.406Z,55.8710
2022-08-22T04:58:29.653Z,55.9380
2022-08-22T04:59:33.553Z,55.9760
2022-08-22T05:00:34.485Z,55.9500
2022-08-22T05:01:34.752Z,56.1470
2022-08-22T05:02:37.062Z,56.1200
2022-08-22T05:03:44.386Z,55.9920
2022-08-22T05:04:39.579Z,55.7730
2022-08-22T05:05:41.927Z,55.6140
2022-08-22T05:06:44.266Z,55.5270
2022-08-22T05:07:46.608Z,55.3410
2022-08-22T05:08:53.785Z,55.3440
2022-08-22T05:09:51.334Z,55.1130
2022-08-22T05:10:51.546Z,55.2040
2022-08-22T05:11:53.860Z,55.2350
2022-08-22T05:12:56.166Z,55.1080
2022-08-22T05:13:58.496Z,55.0750
2022-08-22T05:15:00.842Z,54.7990
2022-08-22T05:16:03.220Z,54.7740
2022-08-22T05:17:05.514Z,54.6170
2022-08-22T05:18:07.794Z,54.7020
2022-08-22T05:19:14.342Z,54.5980
2022-08-22T05:20:12.491Z,54.5780
2022-08-22T05:21:14.855Z,54.5780
2022-08-22T05:22:17.198Z,54.3540
2022-08-22T05:23:17.886Z,54.5120
2022-08-22T05:24:19.673Z,54.7770
2022-08-22T05:25:22.009Z,54.5600
2022-08-22T05:26:24.384Z,54.3170
2022-08-22T05:27:26.689Z,54.2630
2022-08-22T05:28:29.040Z,54.2120
2022-08-22T05:29:31.335Z,54.0570
2022-08-22T05:30:33.665Z,54.1860
2022-08-22T05:31:36.038Z,54.0570
2022-08-22T05:32:38.341Z,54.0140
2022-08-22T05:33:40.662Z,54.2340
2022-08-22T05:34:42.989Z,54.2220
2022-08-22T05:35:49.572Z,54.0900
2022-08-22T05:36:47.639Z,54.0620
2022-08-22T05:37:49.929Z,54.0900
2022-08-22T05:38:52.250Z,54.1190
2022-08-22T05:39:54.631Z,54.0520
2022-08-22T05:40:56.924Z,54.0440
2022-08-22T05:41:57.134Z,54.1460
2022-08-22T05:42:59.430Z,54.1610
2022-08-22T05:44:01.775Z,54.1250
2022-08-22T05:45:04.055Z,53.9870
2022-08-22T05:46:04.243Z,54.1660
2022-08-22T05:47:06.632Z,53.9220
2022-08-22T05:48:08.836Z,53.9800
2022-08-22T05:49:09.005Z,53.8000
2022-08-22T05:50:11.297Z,53.6950
2022-08-22T05:51:13.626Z,53.6950
2022-08-22T05:52:15.949Z,53.7640
2022-08-22T05:53:16.057Z,53.7200
2022-08-22T05:54:18.366Z,53.7980
2022-08-22T05:55:20.671Z,53.5220
2022-08-22T05:56:22.963Z,53.3120
2022-08-22T05:57:25.271Z,53.3520
2022-08-22T05:58:27.521Z,53.1500
2022-08-22T05:59:29.776Z,52.9770
2022-08-22T06:00:29.946Z,52.8560
2022-08-22T06:01:32.204Z,52.7960
2022-08-22T06:02:34.471Z,52.6250
2022-08-22T06:03:36.719Z,52.4630
2022-08-22T06:04:36.923Z,52.3320
2022-08-22T06:05:39.220Z,52.3360
2022-08-22T06:06:41.510Z,52.1290
2022-08-22T06:07:43.805Z,51.9750
2022-08-22T06:08:46.053Z,51.9760
2022-08-22T06:09:48.336Z,51.9610
2022-08-22T06:10:50.604Z,51.8970
2022-08-22T06:11:51.755Z,51.8660
2022-08-22T06:12:53.035Z,51.8080
2022-08-22T06:13:55.283Z,51.7840
2022-08-22T06:14:57.565Z,51.7260
2022-08-22T06:15:57.709Z,51.8090
2022-08-22T06:16:59.972Z,51.7080
2022-08-22T06:18:02.251Z,51.7280
2022-08-22T06:19:04.485Z,51.7220
2022-08-22T06:20:06.663Z,51.6620
2022-08-22T06:21:08.922Z,51.5230
2022-08-22T06:22:13.704Z,51.4110
2022-08-22T06:23:13.555Z,51.4550
2022-08-22T06:24:13.694Z,51.4240
2022-08-22T06:25:15.975Z,51.3780
2022-08-22T06:26:21.306Z,51.3850
2022-08-22T06:27:20.625Z,51.4550
2022-08-22T06:28:23.001Z,51.4550
2022-08-22T06:29:25.245Z,51.3770
2022-08-22T06:30:27.587Z,51.5010
2022-08-22T06:31:29.811Z,51.4520
2022-08-22T06:32:59.564Z,51.4290
2022-08-22T06:33:34.450Z,51.5720
2022-08-22T06:34:34.645Z,51.6380
2022-08-22T06:35:36.982Z,51.5840
2022-08-22T06:36:39.314Z,51.6830
2022-08-22T06:37:39.508Z,51.7410
2022-08-22T06:38:41.852Z,51.7000
2022-08-22T06:39:44.194Z,51.6660
2022-08-22T06:40:44.370Z,51.7270
2022-08-22T06:41:46.658Z,51.7780
2022-08-22T06:42:49.026Z,51.6850
2022-08-22T06:43:51.410Z,51.7030
2022-08-22T06:44:53.751Z,51.8490
2022-08-22T06:45:56.082Z,51.9380
2022-08-22T06:46:58.430Z,51.8130
2022-08-22T06:48:01.081Z,51.8220
2022-08-22T06:49:03.080Z,51.8240
2022-08-22T06:50:03.271Z,51.9570
2022-08-22T06:51:05.598Z,51.8860
2022-08-22T06:52:07.909Z,51.8620
2022-08-22T06:53:10.214Z,51.9370
2022-08-22T06:54:12.544Z,51.9240
2022-08-22T06:55:14.818Z,51.9560
2022-08-22T06:56:17.109Z,52.0130
2022-08-22T06:57:17.256Z,52.0140
2022-08-22T06:58:19.535Z,52.0390
2022-08-22T06:59:21.852Z,52.0140
2022-08-22T07:00:24.272Z,52.0920
2022-08-22T07:01:24.286Z,52.1440
2022-08-22T07:02:26.436Z,52.1220
2022-08-22T07:03:28.716Z,52.0910
2022-08-22T07:04:31.010Z,51.9960
2022-08-22T07:05:31.122Z,52.0330
2022-08-22T07:06:33.412Z,52.0700
2022-08-22T07:07:35.699Z,52.1510
2022-08-22T07:08:39.266Z,52.1100
2022-08-22T07:09:38.112Z,51.9770
2022-08-22T07:10:40.367Z,52.0270
2022-08-22T07:11:42.633Z,52.0910
2022-08-22T07:12:44.888Z,51.9180
2022-08-22T07:15:02.373Z,51.6950
2022-08-22T07:16:04.519Z,51.6830
2022-08-22T07:17:06.736Z,51.5440
2022-08-22T07:18:08.931Z,51.2880
2022-08-22T07:19:11.161Z,51.2470
2022-08-22T07:20:13.406Z,51.3150
2022-08-22T07:21:15.571Z,51.2390
2022-08-22T07:22:17.779Z,51.4520
2022-08-22T07:23:19.966Z,51.2820
2022-08-22T07:24:22.176Z,51.2450
2022-08-22T07:25:24.450Z,51.3850
2022-08-22T07:26:24.542Z,51.4330
2022-08-22T07:27:26.825Z,51.2580
2022-08-22T07:28:36.511Z,51.2200
2022-08-22T07:29:31.355Z,51.3910
2022-08-22T07:30:33.676Z,51.5950
2022-08-22T07:31:35.948Z,51.5160
2022-08-22T07:32:38.261Z,51.6350
2022-08-22T07:33:38.374Z,51.3450
2022-08-22T07:34:40.605Z,51.6930
2022-08-22T07:35:42.902Z,51.3430
2022-08-22T07:36:45.135Z,51.3740
2022-08-22T07:37:47.393Z,51.4270
2022-08-22T07:38:49.632Z,51.3490
2022-08-22T07:39:51.912Z,51.3260
2022-08-22T07:40:54.150Z,51.3550
2022-08-22T07:41:56.351Z,51.2250
2022-08-22T07:42:58.616Z,51.3130
2022-08-22T07:44:00.874Z,51.3680
2022-08-22T07:45:00.980Z,51.5510
2022-08-22T07:46:03.280Z,51.5110
2022-08-22T07:47:05.539Z,51.4160
2022-08-22T07:48:07.738Z,51.3970
2022-08-22T07:49:10.307Z,51.5500
2022-08-22T07:50:12.224Z,51.7390
2022-08-22T07:51:14.508Z,51.6230
2022-08-22T07:52:16.740Z,51.7270
2022-08-22T07:53:18.919Z,51.7200
2022-08-22T07:54:18.962Z,51.7290
2022-08-22T07:55:21.166Z,51.7970
2022-08-22T07:56:23.408Z,52.0210
2022-08-22T07:57:25.634Z,51.8860
2022-08-22T07:58:27.879Z,51.8330
2022-08-22T07:59:30.112Z,52.0780
2022-08-22T08:00:32.350Z,51.8760
2022-08-22T08:01:34.887Z,51.9800
2022-08-22T08:02:36.910Z,51.9800
2022-08-22T08:03:39.052Z,52.1070
2022-08-22T08:04:41.268Z,52.0700
2022-08-22T08:05:43.470Z,51.9540
2022-08-22T08:06:43.816Z,52.1470
2022-08-22T08:07:45.885Z,52.1410
2022-08-22T08:08:48.163Z,52.1010
2022-08-22T08:09:50.402Z,52.1930
2022-08-22T08:10:52.693Z,52.0950
2022-08-22T08:11:54.959Z,52.2010
2022-08-22T08:13:02.172Z,52.0120
2022-08-22T08:13:59.502Z,52.1410
2022-08-22T08:14:59.630Z,52.2660
2022-08-22T08:16:01.899Z,52.2660
2022-08-22T08:17:04.212Z,52.1410
2022-08-22T08:18:06.513Z,52.2640
2022-08-22T08:19:08.865Z,52.2140
2022-08-22T08:20:11.121Z,52.2220
2022-08-22T08:21:11.300Z,52.0390
2022-08-22T08:22:13.608Z,52.0120
2022-08-22T08:23:15.829Z,52.0640
2022-08-22T08:24:18.080Z,52.1310
2022-08-22T08:25:20.355Z,52.2240
2022-08-22T08:26:22.571Z,52.2760
2022-08-22T08:27:24.811Z,52.3500
2022-08-22T08:28:27.013Z,52.0410
2022-08-22T08:29:29.233Z,52.2890
2022-08-22T08:30:31.476Z,52.0400
2022-08-22T08:31:31.596Z,52.4010
2022-08-22T08:32:33.921Z,52.4140
2022-08-22T08:33:36.174Z,52.2990
2022-08-22T08:34:38.461Z,52.2990
2022-08-22T08:35:42.301Z,52.2600
2022-08-22T08:36:43.004Z,52.6200
2022-08-22T08:37:45.272Z,52.4790
2022-08-22T08:38:47.520Z,52.6180
2022-08-22T08:39:47.689Z,52.2700
2022-08-22T08:40:49.869Z,52.2220
2022-08-22T08:41:52.113Z,52.4010
2022-08-22T08:42:54.582Z,52.5140
2022-08-22T08:43:56.612Z,52.6310
2022-08-22T08:44:58.878Z,52.6670
2022-08-22T08:46:01.141Z,52.5730
2022-08-22T08:47:03.355Z,52.3040
2022-08-22T08:48:05.636Z,52.3890
2022-08-22T08:49:07.867Z,52.1140
2022-08-22T08:50:07.978Z,52.1390
2022-08-22T08:51:10.223Z,52.0290
2022-08-22T08:52:12.500Z,52.0730
2022-08-22T08:53:14.752Z,51.6390
2022-08-22T08:54:16.955Z,51.5920
2022-08-22T08:55:22.056Z,51.6190
2022-08-22T08:56:21.442Z,51.2790
2022-08-22T08:57:23.742Z,51.6310
2022-08-22T08:58:24.089Z,51.6890
2022-08-22T08:59:26.143Z,51.5380
2022-08-22T09:00:29.066Z,51.5070
2022-08-22T09:01:30.745Z,51.3430
2022-08-22T09:02:34.883Z,51.4140
2022-08-22T09:03:35.340Z,51.5540
2022-08-22T09:04:37.600Z,51.9200
2022-08-22T09:05:37.711Z,52.1280
2022-08-22T09:06:42.581Z,52.1550
2022-08-22T09:07:42.163Z,52.3050
2022-08-22T09:08:44.435Z,52.4050
2022-08-22T09:09:46.673Z,52.3780
2022-08-22T09:10:48.923Z,52.2450
2022-08-22T09:11:51.209Z,52.0510
2022-08-22T09:12:56.474Z,51.6960
2022-08-22T09:13:55.847Z,51.4900
2022-08-22T09:14:57.895Z,51.5710
2022-08-22T09:17:00.239Z,51.7060
2022-08-22T09:18:02.497Z,51.7120
2022-08-22T09:19:04.995Z,51.2130
2022-08-22T09:20:18.091Z,51.0720
2022-08-22T09:21:09.242Z,51.3270
2022-08-22T09:22:14.207Z,51.4240
2022-08-22T09:23:13.668Z,51.6610
2022-08-22T09:24:16.159Z,51.4680
2022-08-22T09:25:18.095Z,51.0830
2022-08-22T09:26:20.302Z,51.3000
2022-08-22T09:27:22.533Z,51.3790
2022-08-22T09:28:28.194Z,51.3120
2022-08-22T09:29:28.971Z,51.1530
2022-08-22T09:30:29.308Z,51.2260
2022-08-22T09:31:47.460Z,51.1180
2022-08-22T09:32:33.841Z,51.4080
2022-08-22T09:33:36.125Z,51.1120
2022-08-22T09:34:36.324Z,51.1200
2022-08-22T09:35:38.547Z,51.0150
2022-08-22T09:36:40.834Z,51.3260
2022-08-22T09:37:43.087Z,51.0710
2022-08-22T09:38:48.093Z,51.0380
2022-08-22T09:39:49.421Z,50.8850
2022-08-22T09:40:49.864Z,50.8350
2022-08-22T09:41:52.310Z,51.2490
2022-08-22T09:42:52.292Z,51.1020
2022-08-22T09:43:54.491Z,50.9430
2022-08-22T09:44:56.730Z,51.3710
2022-08-22T09:46:02.162Z,51.0670
2022-08-22T09:47:01.189Z,50.9660
2022-08-22T09:48:07.324Z,51.0940
2022-08-22T09:49:06.616Z,51.2180
2022-08-22T09:50:07.855Z,51.2720
2022-08-22T09:51:31.887Z,51.2530
2022-08-22T09:52:15.140Z,51.0520
2022-08-22T09:53:12.254Z,51.0110
2022-08-22T09:54:14.487Z,50.9990
2022-08-22T09:55:16.160Z,50.9700
2022-08-22T09:56:16.740Z,51.1600
2022-08-22T09:57:18.972Z,51.1290
2022-08-22T09:58:21.364Z,51.0760
2022-08-22T09:59:23.454Z,50.9230
2022-08-22T10:00:25.918Z,51.4590
2022-08-22T10:01:33.008Z,51.0700
2022-08-22T10:03:28.186Z,51.3010
2022-08-22T10:04:30.389Z,51.2230
2022-08-22T10:05:40.872Z,51.0360
2022-08-22T10:06:37.037Z,51.0690
2022-08-22T10:07:32.836Z,51.2350
2022-08-22T10:08:35.059Z,51.0880
2022-08-22T10:09:37.288Z,51.0110
2022-08-22T10:10:39.565Z,51.0060
2022-08-22T10:11:42.167Z,51.0950
2022-08-22T10:12:41.798Z,51.0820
2022-08-22T10:13:44.025Z,51.0240
2022-08-22T10:14:50.492Z,51.0430
2022-08-22T10:15:48.561Z,51.1130
2022-08-22T10:16:50.778Z,51.1340
2022-08-22T10:17:53.040Z,51.0660
2022-08-22T10:18:57.973Z,51.0760
2022-08-22T10:19:57.578Z,51.0630
2022-08-22T10:20:59.919Z,51.0820
2022-08-22T10:21:59.986Z,51.0700
2022-08-22T10:23:02.456Z,51.2070
2022-08-22T10:24:07.213Z,51.0840
2022-08-22T10:25:06.731Z,51.1010
2022-08-22T10:26:09.017Z,51.1760
2022-08-22T10:27:11.249Z,51.1110
2022-08-22T10:28:13.488Z,51.0410
2022-08-22T10:29:15.697Z,51.0410
2022-08-22T10:30:17.860Z,50.9890
2022-08-22T10:31:20.129Z,51.0250
2022-08-22T10:32:26.944Z,51.0290
2022-08-22T10:33:22.953Z,51.0250
2022-08-22T10:34:24.556Z,50.9810
2022-08-22T10:35:26.795Z,50.9830
2022-08-22T10:36:28.994Z,51.0890
2022-08-22T10:37:31.130Z,50.9670
2022-08-22T10:38:36.078Z,50.9360
2022-08-22T10:39:39.887Z,50.9710
2022-08-22T10:40:42.100Z,50.9550
2022-08-22T10:41:42.237Z,50.8840
2022-08-22T10:42:42.348Z,50.9360
2022-08-22T10:43:44.620Z,50.8720
2022-08-22T10:44:46.909Z,50.8410
2022-08-22T10:45:49.098Z,50.8530
2022-08-22T10:46:51.381Z,50.7540
2022-08-22T10:47:53.565Z,50.6900
2022-08-22T10:48:53.658Z,50.6650
2022-08-22T10:49:55.896Z,50.6960
2022-08-22T10:50:58.104Z,50.5890
2022-08-22T10:52:09.688Z,50.6260
2022-08-22T10:53:02.440Z,50.6260
2022-08-22T10:54:04.666Z,50.4880
2022-08-22T10:55:10.121Z,50.5890
2022-08-22T10:56:09.076Z,50.4180
2022-08-22T10:57:11.341Z,50.4240
2022-08-22T10:58:15.657Z,50.3660
2022-08-22T10:59:15.765Z,50.4240
2022-08-22T11:00:22.907Z,50.4120
2022-08-22T11:01:41.007Z,50.3480
2022-08-22T11:02:20.287Z,50.5070
2022-08-22T11:03:23.510Z,50.3420
2022-08-22T11:04:28.156Z,50.3210
2022-08-22T11:05:26.972Z,50.5250
2022-08-22T11:06:29.207Z,50.4610
2022-08-22T11:07:31.474Z,50.3320
2022-08-22T11:08:34.936Z,50.3380
2022-08-22T11:09:36.315Z,50.2610
2022-08-22T11:10:38.190Z,50.0870
2022-08-22T11:10:52.099Z,50.0740
2022-08-22T11:11:53.231Z,50.1810
2022-08-22T11:12:55.490Z,50.0040
2022-08-22T11:13:57.661Z,49.8750
2022-08-22T11:14:59.900Z,49.9710
2022-08-22T11:16:04.361Z,49.8580
2022-08-22T11:17:12.311Z,49.8890
2022-08-22T11:18:06.578Z,49.9410
2022-08-22T11:20:00.376Z,49.9650
2022-08-22T11:21:02.520Z,49.7820
2022-08-22T11:22:04.733Z,49.6840
2022-08-22T11:23:06.962Z,49.7600
2022-08-22T11:24:09.199Z,49.5830
2022-08-22T11:25:11.463Z,49.6450
2022-08-22T11:26:13.641Z,49.5630
2022-08-22T11:27:17.611Z,49.4870
2022-08-22T11:28:18.046Z,49.4640
2022-08-22T11:29:18.141Z,49.2980
2022-08-22T11:30:20.329Z,49.3420
2022-08-22T11:31:22.546Z,49.1840
2022-08-22T11:32:24.901Z,49.1200
2022-08-22T11:33:46.178Z,49.2530
2022-08-22T11:34:29.529Z,49.1530
2022-08-22T11:35:31.514Z,49.3740
2022-08-22T11:36:33.776Z,49.1470
2022-08-22T11:37:42.861Z,49.1960
2022-08-22T11:38:38.262Z,49.1260
2022-08-22T11:39:40.596Z,48.9850
2022-08-22T11:40:40.665Z,49.0280
2022-08-22T11:41:42.891Z,48.8770
2022-08-22T11:42:47.395Z,48.6630
2022-08-22T11:43:47.426Z,48.6100
2022-08-22T11:44:50.446Z,48.7260
2022-08-22T11:45:51.938Z,48.6300
2022-08-22T11:46:54.202Z,48.2900
2022-08-22T11:47:54.306Z,48.2490
2022-08-22T11:48:56.567Z,48.2100
2022-08-22T11:49:56.707Z,48.2430
2022-08-22T11:50:58.940Z,48.1110
2022-08-22T11:52:01.201Z,48.0290
2022-08-22T11:53:04.630Z,47.8990
2022-08-22T11:54:05.730Z,48.0940
2022-08-22T11:55:08.038Z,47.9280
2022-08-22T11:56:10.326Z,47.8220
2022-08-22T11:57:12.541Z,47.6860
2022-08-22T11:58:14.777Z,47.6920
2022-08-22T11:59:17.048Z,47.7610
2022-08-22T12:00:20.854Z,47.5890
2022-08-22T12:01:21.585Z,47.2660
2022-08-22T12:02:21.783Z,46.9570
2022-08-22T12:03:23.975Z,46.7730
2022-08-22T12:04:26.242Z,46.6740
2022-08-22T12:05:28.567Z,46.7260
2022-08-22T12:06:30.814Z,46.6570
2022-08-22T12:07:33.068Z,46.7770
2022-08-22T12:08:35.348Z,46.8390
2022-08-22T12:09:35.503Z,46.6490
2022-08-22T12:10:37.749Z,46.9300
2022-08-22T12:11:39.950Z,47.0480
2022-08-22T12:12:42.335Z,47.0450
2022-08-22T12:13:44.368Z,46.9650
2022-08-22T12:14:46.538Z,47.0190
2022-08-22T12:15:49.012Z,47.1950
2022-08-22T12:16:50.926Z,47.0130
2022-08-22T12:18:01.001Z,47.0940
2022-08-22T12:18:55.405Z,46.8920
2022-08-22T12:20:15.032Z,46.8980
2022-08-22T12:20:59.872Z,47.0920
2022-08-22T12:22:02.036Z,47.0410
2022-08-22T12:23:04.596Z,47.2030
2022-08-22T12:24:06.466Z,47.1690
2022-08-22T12:25:08.666Z,46.9320
2022-08-22T12:26:11.010Z,46.6900
2022-08-22T12:27:10.768Z,46.6010
2022-08-22T12:28:13.001Z,46.3350
2022-08-22T12:29:16.855Z,46.3410